sensor_id;sensor_type;location;lat;lon;timestamp;P1;durP1;ratioP1;P2;durP2;ratioP2
69369;SDS011;56530;42.640;23.372;2023-12-04T00:00:24;6.43;;;5.83;;
69369;SDS011;56530;42.640;23.372;2023-12-04T00:02:49;7.20;;;6.53;;
69369;SDS011;56530;42.640;23.372;2023-12-04T00:05:15;6.77;;;6.17;;
69369;SDS011;56530;42.640;23.372;2023-12-04T00:07:40;6.47;;;5.93;;
69369;SDS011;56530;42.640;23.372;2023-12-04T00:10:06;7.23;;;6.53;;
69369;SDS011;56530;42.640;23.372;2023-12-04T00:12:31;7.23;;;6.53;;
69369;SDS011;56530;42.640;23.372;2023-12-04T00:14:57;6.90;;;6.30;;
69369;SDS011;56530;42.640;23.372;2023-12-04T00:17:22;7.93;;;7.30;;
69369;SDS011;56530;42.640;23.372;2023-12-04T00:19:47;7.13;;;6.53;;
69369;SDS011;56530;42.640;23.372;2023-12-04T00:22:13;7.10;;;6.50;;
69369;SDS011;56530;42.640;23.372;2023-12-04T00:24:38;6.97;;;6.20;;
69369;SDS011;56530;42.640;23.372;2023-12-04T00:27:04;7.13;;;6.50;;
69369;SDS011;56530;42.640;23.372;2023-12-04T00:29:29;7.03;;;6.33;;
69369;SDS011;56530;42.640;23.372;2023-12-04T00:31:55;6.73;;;6.20;;
69369;SDS011;56530;42.640;23.372;2023-12-04T00:34:22;6.83;;;6.23;;
69369;SDS011;56530;42.640;23.372;2023-12-04T00:36:47;7.03;;;6.43;;
69369;SDS011;56530;42.640;23.372;2023-12-04T00:39:13;6.90;;;6.30;;
69369;SDS011;56530;42.640;23.372;2023-12-04T00:41:38;6.67;;;6.13;;
69369;SDS011;56530;42.640;23.372;2023-12-04T00:44:04;6.60;;;6.00;;
69369;SDS011;56530;42.640;23.372;2023-12-04T00:46:29;6.70;;;6.10;;
69369;SDS011;56530;42.640;23.372;2023-12-04T00:48:54;7.07;;;6.47;;
69369;SDS011;56530;42.640;23.372;2023-12-04T00:51:20;6.57;;;5.97;;
69369;SDS011;56530;42.640;23.372;2023-12-04T00:53:45;6.50;;;5.90;;
69369;SDS011;56530;42.640;23.372;2023-12-04T00:56:11;7.57;;;6.97;;
69369;SDS011;56530;42.640;23.372;2023-12-04T00:58:36;11.23;;;6.00;;
69369;SDS011;56530;42.640;23.372;2023-12-04T01:01:02;7.50;;;6.80;;
69369;SDS011;56530;42.640;23.372;2023-12-04T01:03:27;7.53;;;6.83;;
69369;SDS011;56530;42.640;23.372;2023-12-04T01:05:52;7.00;;;6.30;;
69369;SDS011;56530;42.640;23.372;2023-12-04T01:08:18;7.27;;;6.67;;
69369;SDS011;56530;42.640;23.372;2023-12-04T01:10:43;7.90;;;7.20;;
69369;SDS011;56530;42.640;23.372;2023-12-04T01:13:09;7.73;;;6.80;;
69369;SDS011;56530;42.640;23.372;2023-12-04T01:15:34;7.97;;;7.17;;
69369;SDS011;56530;42.640;23.372;2023-12-04T01:18:01;7.13;;;6.53;;
69369;SDS011;56530;42.640;23.372;2023-12-04T01:20:27;7.77;;;7.17;;
69369;SDS011;56530;42.640;23.372;2023-12-04T01:22:52;7.43;;;6.70;;
69369;SDS011;56530;42.640;23.372;2023-12-04T01:25:17;7.70;;;7.07;;
69369;SDS011;56530;42.640;23.372;2023-12-04T01:27:43;7.93;;;7.23;;
69369;SDS011;56530;42.640;23.372;2023-12-04T01:30:09;7.90;;;7.10;;
69369;SDS011;56530;42.640;23.372;2023-12-04T01:32:35;7.90;;;7.27;;
69369;SDS011;56530;42.640;23.372;2023-12-04T01:35:01;8.07;;;7.37;;
69369;SDS011;56530;42.640;23.372;2023-12-04T01:37:27;7.33;;;6.63;;
69369;SDS011;56530;42.640;23.372;2023-12-04T01:39:52;7.57;;;6.87;;
69369;SDS011;56530;42.640;23.372;2023-12-04T01:42:17;7.73;;;7.03;;
69369;SDS011;56530;42.640;23.372;2023-12-04T01:44:43;8.13;;;7.43;;
69369;SDS011;56530;42.640;23.372;2023-12-04T01:47:08;8.23;;;7.43;;
69369;SDS011;56530;42.640;23.372;2023-12-04T01:49:34;8.50;;;7.70;;
69369;SDS011;56530;42.640;23.372;2023-12-04T01:52:00;7.80;;;7.10;;
69369;SDS011;56530;42.640;23.372;2023-12-04T01:54:26;8.03;;;7.23;;
69369;SDS011;56530;42.640;23.372;2023-12-04T01:56:51;7.33;;;6.73;;
69369;SDS011;56530;42.640;23.372;2023-12-04T01:59:17;7.73;;;7.03;;
69369;SDS011;56530;42.640;23.372;2023-12-04T02:01:42;8.60;;;7.80;;
69369;SDS011;56530;42.640;23.372;2023-12-04T02:04:09;7.90;;;7.20;;
69369;SDS011;56530;42.640;23.372;2023-12-04T02:06:34;7.53;;;6.83;;
69369;SDS011;56530;42.640;23.372;2023-12-04T02:09:00;8.13;;;7.43;;
69369;SDS011;56530;42.640;23.372;2023-12-04T02:11:26;8.30;;;7.50;;
69369;SDS011;56530;42.640;23.372;2023-12-04T02:13:52;8.03;;;7.33;;
69369;SDS011;56530;42.640;23.372;2023-12-04T02:16:17;8.67;;;7.77;;
69369;SDS011;56530;42.640;23.372;2023-12-04T02:18:44;10.53;;;8.67;;
69369;SDS011;56530;42.640;23.372;2023-12-04T02:21:09;9.30;;;8.40;;
69369;SDS011;56530;42.640;23.372;2023-12-04T02:23:35;8.27;;;7.53;;
69369;SDS011;56530;42.640;23.372;2023-12-04T02:26:05;8.00;;;7.30;;
69369;SDS011;56530;42.640;23.372;2023-12-04T02:28:35;7.00;;;6.40;;
69369;SDS011;56530;42.640;23.372;2023-12-04T02:31:01;8.17;;;7.43;;
69369;SDS011;56530;42.640;23.372;2023-12-04T02:33:29;7.30;;;6.70;;
69369;SDS011;56530;42.640;23.372;2023-12-04T02:35:55;7.83;;;7.13;;
69369;SDS011;56530;42.640;23.372;2023-12-04T02:38:22;7.40;;;6.80;;
69369;SDS011;56530;42.640;23.372;2023-12-04T02:40:48;8.23;;;7.43;;
69369;SDS011;56530;42.640;23.372;2023-12-04T02:43:13;8.10;;;7.40;;
69369;SDS011;56530;42.640;23.372;2023-12-04T02:45:39;8.23;;;7.27;;
69369;SDS011;56530;42.640;23.372;2023-12-04T02:48:04;8.10;;;7.40;;
69369;SDS011;56530;42.640;23.372;2023-12-04T02:50:30;8.03;;;7.33;;
69369;SDS011;56530;42.640;23.372;2023-12-04T02:52:55;8.17;;;7.47;;
69369;SDS011;56530;42.640;23.372;2023-12-04T02:55:21;7.97;;;7.27;;
69369;SDS011;56530;42.640;23.372;2023-12-04T02:57:46;7.80;;;7.10;;
69369;SDS011;56530;42.640;23.372;2023-12-04T03:00:11;7.80;;;7.10;;
69369;SDS011;56530;42.640;23.372;2023-12-04T03:02:37;7.17;;;6.57;;
69369;SDS011;56530;42.640;23.372;2023-12-04T03:05:02;8.33;;;7.53;;
69369;SDS011;56530;42.640;23.372;2023-12-04T03:07:28;7.70;;;7.00;;
69369;SDS011;56530;42.640;23.372;2023-12-04T03:09:53;7.63;;;6.83;;
69369;SDS011;56530;42.640;23.372;2023-12-04T03:12:19;7.90;;;7.20;;
69369;SDS011;56530;42.640;23.372;2023-12-04T03:14:44;8.27;;;7.47;;
69369;SDS011;56530;42.640;23.372;2023-12-04T03:17:10;7.73;;;7.03;;
69369;SDS011;56530;42.640;23.372;2023-12-04T03:19:35;7.47;;;6.77;;
69369;SDS011;56530;42.640;23.372;2023-12-04T03:22:01;8.17;;;7.37;;
69369;SDS011;56530;42.640;23.372;2023-12-04T03:24:26;7.63;;;6.93;;
69369;SDS011;56530;42.640;23.372;2023-12-04T03:26:52;7.57;;;6.87;;
69369;SDS011;56530;42.640;23.372;2023-12-04T03:29:17;7.60;;;6.90;;
69369;SDS011;56530;42.640;23.372;2023-12-04T03:31:43;6.73;;;6.13;;
69369;SDS011;56530;42.640;23.372;2023-12-04T03:34:08;7.27;;;6.67;;
69369;SDS011;56530;42.640;23.372;2023-12-04T03:36:34;7.03;;;6.43;;
69369;SDS011;56530;42.640;23.372;2023-12-04T03:38:59;7.63;;;6.80;;
69369;SDS011;56530;42.640;23.372;2023-12-04T03:41:25;7.40;;;6.70;;
69369;SDS011;56530;42.640;23.372;2023-12-04T03:43:50;8.03;;;7.33;;
69369;SDS011;56530;42.640;23.372;2023-12-04T03:46:15;7.60;;;7.00;;
69369;SDS011;56530;42.640;23.372;2023-12-04T03:48:41;7.70;;;7.00;;
69369;SDS011;56530;42.640;23.372;2023-12-04T03:51:06;7.93;;;7.13;;
69369;SDS011;56530;42.640;23.372;2023-12-04T03:53:32;8.00;;;7.30;;
69369;SDS011;56530;42.640;23.372;2023-12-04T03:55:58;7.70;;;7.00;;
69369;SDS011;56530;42.640;23.372;2023-12-04T03:58:23;7.17;;;6.57;;
69369;SDS011;56530;42.640;23.372;2023-12-04T04:00:49;7.87;;;7.03;;
69369;SDS011;56530;42.640;23.372;2023-12-04T04:03:14;7.50;;;6.80;;
69369;SDS011;56530;42.640;23.372;2023-12-04T04:05:40;8.00;;;7.27;;
69369;SDS011;56530;42.640;23.372;2023-12-04T04:08:05;7.93;;;7.20;;
69369;SDS011;56530;42.640;23.372;2023-12-04T04:10:32;8.13;;;7.33;;
69369;SDS011;56530;42.640;23.372;2023-12-04T04:12:58;8.57;;;7.77;;
69369;SDS011;56530;42.640;23.372;2023-12-04T04:15:23;7.90;;;7.20;;
69369;SDS011;56530;42.640;23.372;2023-12-04T04:17:48;7.93;;;7.23;;
69369;SDS011;56530;42.640;23.372;2023-12-04T04:20:14;7.20;;;6.50;;
69369;SDS011;56530;42.640;23.372;2023-12-04T04:22:39;7.93;;;7.03;;
69369;SDS011;56530;42.640;23.372;2023-12-04T04:25:09;7.90;;;7.10;;
69369;SDS011;56530;42.640;23.372;2023-12-04T04:27:34;8.53;;;7.33;;
69369;SDS011;56530;42.640;23.372;2023-12-04T04:30:00;8.57;;;7.77;;
69369;SDS011;56530;42.640;23.372;2023-12-04T04:32:26;8.40;;;7.57;;
69369;SDS011;56530;42.640;23.372;2023-12-04T04:34:52;7.50;;;6.77;;
69369;SDS011;56530;42.640;23.372;2023-12-04T04:37:19;7.47;;;6.77;;
69369;SDS011;56530;42.640;23.372;2023-12-04T04:39:44;7.40;;;6.70;;
69369;SDS011;56530;42.640;23.372;2023-12-04T04:42:10;8.00;;;7.27;;
69369;SDS011;56530;42.640;23.372;2023-12-04T04:44:35;7.73;;;7.03;;
69369;SDS011;56530;42.640;23.372;2023-12-04T04:47:00;8.10;;;7.30;;
69369;SDS011;56530;42.640;23.372;2023-12-04T04:49:26;7.33;;;6.60;;
69369;SDS011;56530;42.640;23.372;2023-12-04T04:51:51;7.73;;;6.30;;
69369;SDS011;56530;42.640;23.372;2023-12-04T04:54:17;7.37;;;6.67;;
69369;SDS011;56530;42.640;23.372;2023-12-04T04:56:42;7.00;;;6.40;;
69369;SDS011;56530;42.640;23.372;2023-12-04T04:59:08;7.00;;;6.40;;
69369;SDS011;56530;42.640;23.372;2023-12-04T05:01:33;7.33;;;6.63;;
69369;SDS011;56530;42.640;23.372;2023-12-04T05:03:58;12.40;;;8.60;;
69369;SDS011;56530;42.640;23.372;2023-12-04T05:06:24;6.97;;;6.37;;
69369;SDS011;56530;42.640;23.372;2023-12-04T05:08:50;8.07;;;7.27;;
69369;SDS011;56530;42.640;23.372;2023-12-04T05:11:17;7.07;;;6.47;;
69369;SDS011;56530;42.640;23.372;2023-12-04T05:13:44;6.73;;;6.13;;
69369;SDS011;56530;42.640;23.372;2023-12-04T05:16:09;6.93;;;6.33;;
69369;SDS011;56530;42.640;23.372;2023-12-04T05:18:35;7.30;;;6.53;;
69369;SDS011;56530;42.640;23.372;2023-12-04T05:21:00;8.90;;;6.30;;
69369;SDS011;56530;42.640;23.372;2023-12-04T05:23:26;7.73;;;7.03;;
69369;SDS011;56530;42.640;23.372;2023-12-04T05:25:51;6.93;;;6.33;;
69369;SDS011;56530;42.640;23.372;2023-12-04T05:28:16;6.70;;;6.10;;
69369;SDS011;56530;42.640;23.372;2023-12-04T05:30:42;7.07;;;6.47;;
69369;SDS011;56530;42.640;23.372;2023-12-04T05:33:08;9.07;;;7.90;;
69369;SDS011;56530;42.640;23.372;2023-12-04T05:35:37;7.00;;;6.40;;
69369;SDS011;56530;42.640;23.372;2023-12-04T05:38:05;9.60;;;8.43;;
69369;SDS011;56530;42.640;23.372;2023-12-04T05:40:32;9.83;;;8.83;;
69369;SDS011;56530;42.640;23.372;2023-12-04T05:42:58;8.33;;;7.63;;
69369;SDS011;56530;42.640;23.372;2023-12-04T05:45:23;7.50;;;6.80;;
69369;SDS011;56530;42.640;23.372;2023-12-04T05:47:48;6.83;;;6.23;;
69369;SDS011;56530;42.640;23.372;2023-12-04T05:50:14;7.10;;;6.23;;
69369;SDS011;56530;42.640;23.372;2023-12-04T05:52:39;6.83;;;6.23;;
69369;SDS011;56530;42.640;23.372;2023-12-04T05:55:05;6.30;;;5.70;;
69369;SDS011;56530;42.640;23.372;2023-12-04T05:57:30;9.47;;;7.00;;
69369;SDS011;56530;42.640;23.372;2023-12-04T05:59:56;10.03;;;7.43;;
69369;SDS011;56530;42.640;23.372;2023-12-04T06:02:21;7.87;;;7.07;;
69369;SDS011;56530;42.640;23.372;2023-12-04T06:04:47;8.30;;;7.50;;
69369;SDS011;56530;42.640;23.372;2023-12-04T06:07:12;9.57;;;7.93;;
69369;SDS011;56530;42.640;23.372;2023-12-04T06:09:37;9.00;;;8.10;;
69369;SDS011;56530;42.640;23.372;2023-12-04T06:12:03;8.07;;;7.33;;
69369;SDS011;56530;42.640;23.372;2023-12-04T06:14:33;8.27;;;7.50;;
69369;SDS011;56530;42.640;23.372;2023-12-04T06:16:59;9.47;;;8.47;;
69369;SDS011;56530;42.640;23.372;2023-12-04T06:19:24;9.20;;;8.10;;
69369;SDS011;56530;42.640;23.372;2023-12-04T06:21:49;8.13;;;7.33;;
69369;SDS011;56530;42.640;23.372;2023-12-04T06:24:15;9.63;;;8.77;;
69369;SDS011;56530;42.640;23.372;2023-12-04T06:26:41;11.03;;;9.47;;
69369;SDS011;56530;42.640;23.372;2023-12-04T06:29:08;12.57;;;9.20;;
69369;SDS011;56530;42.640;23.372;2023-12-04T06:31:34;9.83;;;8.73;;
69369;SDS011;56530;42.640;23.372;2023-12-04T06:33:59;8.83;;;8.00;;
69369;SDS011;56530;42.640;23.372;2023-12-04T06:36:25;10.27;;;8.80;;
69369;SDS011;56530;42.640;23.372;2023-12-04T06:38:55;8.63;;;7.83;;
69369;SDS011;56530;42.640;23.372;2023-12-04T06:41:20;9.20;;;8.40;;
69369;SDS011;56530;42.640;23.372;2023-12-04T06:43:46;9.40;;;8.50;;
69369;SDS011;56530;42.640;23.372;2023-12-04T06:46:12;8.07;;;7.27;;
69369;SDS011;56530;42.640;23.372;2023-12-04T06:48:40;9.73;;;7.70;;
69369;SDS011;56530;42.640;23.372;2023-12-04T06:51:07;9.37;;;8.30;;
69369;SDS011;56530;42.640;23.372;2023-12-04T06:53:32;10.40;;;8.97;;
69369;SDS011;56530;42.640;23.372;2023-12-04T06:55:58;8.70;;;7.90;;
69369;SDS011;56530;42.640;23.372;2023-12-04T06:58:23;10.93;;;9.87;;
69369;SDS011;56530;42.640;23.372;2023-12-04T07:00:51;9.33;;;8.40;;
69369;SDS011;56530;42.640;23.372;2023-12-04T07:03:18;9.43;;;8.53;;
69369;SDS011;56530;42.640;23.372;2023-12-04T07:05:43;8.80;;;7.93;;
69369;SDS011;56530;42.640;23.372;2023-12-04T07:08:09;10.50;;;8.73;;
69369;SDS011;56530;42.640;23.372;2023-12-04T07:10:35;9.50;;;8.47;;
69369;SDS011;56530;42.640;23.372;2023-12-04T07:13:00;10.00;;;8.73;;
69369;SDS011;56530;42.640;23.372;2023-12-04T07:15:26;10.10;;;9.07;;
69369;SDS011;56530;42.640;23.372;2023-12-04T07:17:51;9.43;;;8.53;;
69369;SDS011;56530;42.640;23.372;2023-12-04T07:20:17;11.17;;;9.00;;
69369;SDS011;56530;42.640;23.372;2023-12-04T07:22:42;9.37;;;8.47;;
69369;SDS011;56530;42.640;23.372;2023-12-04T07:25:09;9.70;;;8.80;;
69369;SDS011;56530;42.640;23.372;2023-12-04T07:27:34;9.70;;;8.80;;
69369;SDS011;56530;42.640;23.372;2023-12-04T07:30:00;10.40;;;9.43;;
69369;SDS011;56530;42.640;23.372;2023-12-04T07:32:25;10.40;;;9.30;;
69369;SDS011;56530;42.640;23.372;2023-12-04T07:34:51;9.20;;;8.30;;
69369;SDS011;56530;42.640;23.372;2023-12-04T07:37:16;14.47;;;9.70;;
69369;SDS011;56530;42.640;23.372;2023-12-04T07:39:43;8.77;;;7.73;;
69369;SDS011;56530;42.640;23.372;2023-12-04T07:42:11;9.17;;;7.90;;
69369;SDS011;56530;42.640;23.372;2023-12-04T07:44:36;8.90;;;7.97;;
69369;SDS011;56530;42.640;23.372;2023-12-04T07:47:02;8.53;;;7.73;;
69369;SDS011;56530;42.640;23.372;2023-12-04T07:49:27;11.50;;;9.23;;
69369;SDS011;56530;42.640;23.372;2023-12-04T07:51:53;9.93;;;7.93;;
69369;SDS011;56530;42.640;23.372;2023-12-04T07:54:18;9.50;;;8.33;;
69369;SDS011;56530;42.640;23.372;2023-12-04T07:56:44;8.20;;;7.43;;
69369;SDS011;56530;42.640;23.372;2023-12-04T07:59:09;9.70;;;7.87;;
69369;SDS011;56530;42.640;23.372;2023-12-04T08:01:36;9.20;;;8.27;;
69369;SDS011;56530;42.640;23.372;2023-12-04T08:04:01;8.60;;;7.80;;
69369;SDS011;56530;42.640;23.372;2023-12-04T08:06:27;8.50;;;7.33;;
69369;SDS011;56530;42.640;23.372;2023-12-04T08:08:53;7.90;;;7.13;;
69369;SDS011;56530;42.640;23.372;2023-12-04T08:11:19;8.37;;;7.23;;
69369;SDS011;56530;42.640;23.372;2023-12-04T08:13:44;8.27;;;7.37;;
69369;SDS011;56530;42.640;23.372;2023-12-04T08:16:13;8.60;;;6.90;;
69369;SDS011;56530;42.640;23.372;2023-12-04T08:18:42;7.47;;;6.57;;
69369;SDS011;56530;42.640;23.372;2023-12-04T08:21:08;7.73;;;6.40;;
69369;SDS011;56530;42.640;23.372;2023-12-04T08:23:34;7.87;;;6.87;;
69369;SDS011;56530;42.640;23.372;2023-12-04T08:25:59;7.47;;;6.77;;
69369;SDS011;56530;42.640;23.372;2023-12-04T08:28:25;7.77;;;7.00;;
69369;SDS011;56530;42.640;23.372;2023-12-04T08:30:50;7.47;;;6.60;;
69369;SDS011;56530;42.640;23.372;2023-12-04T08:33:16;6.43;;;5.83;;
69369;SDS011;56530;42.640;23.372;2023-12-04T08:35:41;6.87;;;6.27;;
69369;SDS011;56530;42.640;23.372;2023-12-04T08:38:08;6.83;;;6.13;;
69369;SDS011;56530;42.640;23.372;2023-12-04T08:40:33;5.83;;;5.27;;
69369;SDS011;56530;42.640;23.372;2023-12-04T08:42:59;7.87;;;6.00;;
69369;SDS011;56530;42.640;23.372;2023-12-04T08:45:24;6.90;;;6.30;;
69369;SDS011;56530;42.640;23.372;2023-12-04T08:47:49;7.47;;;5.77;;
69369;SDS011;56530;42.640;23.372;2023-12-04T08:50:15;6.83;;;5.73;;
69369;SDS011;56530;42.640;23.372;2023-12-04T08:52:41;6.67;;;6.07;;
69369;SDS011;56530;42.640;23.372;2023-12-04T08:55:06;9.40;;;5.37;;
69369;SDS011;56530;42.640;23.372;2023-12-04T08:57:32;6.80;;;6.03;;
69369;SDS011;56530;42.640;23.372;2023-12-04T08:59:57;6.50;;;5.90;;
69369;SDS011;56530;42.640;23.372;2023-12-04T09:02:23;9.43;;;5.73;;
69369;SDS011;56530;42.640;23.372;2023-12-04T09:04:49;6.40;;;5.80;;
69369;SDS011;56530;42.640;23.372;2023-12-04T09:07:14;11.73;;;6.47;;
69369;SDS011;56530;42.640;23.372;2023-12-04T09:09:39;6.23;;;5.63;;
69369;SDS011;56530;42.640;23.372;2023-12-04T09:12:05;6.87;;;5.27;;
69369;SDS011;56530;42.640;23.372;2023-12-04T09:14:32;6.87;;;6.00;;
69369;SDS011;56530;42.640;23.372;2023-12-04T09:16:58;6.93;;;5.93;;
69369;SDS011;56530;42.640;23.372;2023-12-04T09:19:23;6.13;;;5.53;;
69369;SDS011;56530;42.640;23.372;2023-12-04T09:21:48;6.77;;;5.37;;
69369;SDS011;56530;42.640;23.372;2023-12-04T09:24:14;6.17;;;5.57;;
69369;SDS011;56530;42.640;23.372;2023-12-04T09:26:39;6.57;;;5.93;;
69369;SDS011;56530;42.640;23.372;2023-12-04T09:29:05;6.97;;;5.67;;
69369;SDS011;56530;42.640;23.372;2023-12-04T09:31:30;6.53;;;5.80;;
69369;SDS011;56530;42.640;23.372;2023-12-04T09:33:55;6.67;;;6.00;;
69369;SDS011;56530;42.640;23.372;2023-12-04T09:36:21;9.03;;;5.87;;
69369;SDS011;56530;42.640;23.372;2023-12-04T09:38:46;5.47;;;4.97;;
69369;SDS011;56530;42.640;23.372;2023-12-04T09:41:12;6.20;;;5.60;;
69369;SDS011;56530;42.640;23.372;2023-12-04T09:43:37;6.03;;;5.50;;
69369;SDS011;56530;42.640;23.372;2023-12-04T09:46:03;5.60;;;5.10;;
69369;SDS011;56530;42.640;23.372;2023-12-04T09:48:28;9.47;;;6.20;;
69369;SDS011;56530;42.640;23.372;2023-12-04T09:50:55;8.00;;;5.50;;
69369;SDS011;56530;42.640;23.372;2023-12-04T09:53:20;7.00;;;5.20;;
69369;SDS011;56530;42.640;23.372;2023-12-04T09:55:48;5.67;;;5.03;;
69369;SDS011;56530;42.640;23.372;2023-12-04T09:58:14;7.57;;;5.37;;
69369;SDS011;56530;42.640;23.372;2023-12-04T10:00:40;5.50;;;5.03;;
69369;SDS011;56530;42.640;23.372;2023-12-04T10:03:07;6.67;;;6.07;;
69369;SDS011;56530;42.640;23.372;2023-12-04T10:05:32;5.47;;;4.97;;
69369;SDS011;56530;42.640;23.372;2023-12-04T10:07:58;5.10;;;4.60;;
69369;SDS011;56530;42.640;23.372;2023-12-04T10:10:24;6.10;;;4.90;;
69369;SDS011;56530;42.640;23.372;2023-12-04T10:15:33;6.70;;;4.70;;
69369;SDS011;56530;42.640;23.372;2023-12-04T10:18:00;5.50;;;4.77;;
69369;SDS011;56530;42.640;23.372;2023-12-04T10:20:26;5.87;;;5.30;;
69369;SDS011;56530;42.640;23.372;2023-12-04T10:23:01;6.03;;;5.43;;
69369;SDS011;56530;42.640;23.372;2023-12-04T10:25:30;5.03;;;4.53;;
69369;SDS011;56530;42.640;23.372;2023-12-04T10:28:08;6.55;;;4.85;;
69369;SDS011;56530;42.640;23.372;2023-12-04T10:30:36;5.73;;;4.83;;
69369;SDS011;56530;42.640;23.372;2023-12-04T10:33:02;5.03;;;4.63;;
69369;SDS011;56530;42.640;23.372;2023-12-04T10:35:30;6.40;;;5.00;;
69369;SDS011;56530;42.640;23.372;2023-12-04T10:38:01;8.10;;;5.73;;
69369;SDS011;56530;42.640;23.372;2023-12-04T10:40:34;6.80;;;6.10;;
69369;SDS011;56530;42.640;23.372;2023-12-04T10:45:46;5.25;;;4.75;;
69369;SDS011;56530;42.640;23.372;2023-12-04T10:48:13;7.07;;;6.00;;
69369;SDS011;56530;42.640;23.372;2023-12-04T10:50:41;6.07;;;5.47;;
69369;SDS011;56530;42.640;23.372;2023-12-04T10:53:08;7.60;;;6.13;;
69369;SDS011;56530;42.640;23.372;2023-12-04T10:55:37;6.97;;;6.33;;
69369;SDS011;56530;42.640;23.372;2023-12-04T10:58:04;6.20;;;5.60;;
69369;SDS011;56530;42.640;23.372;2023-12-04T11:00:35;6.23;;;5.53;;
69369;SDS011;56530;42.640;23.372;2023-12-04T11:03:05;5.30;;;4.80;;
69369;SDS011;56530;42.640;23.372;2023-12-04T11:05:33;7.93;;;5.63;;
69369;SDS011;56530;42.640;23.372;2023-12-04T11:08:03;6.43;;;5.60;;
69369;SDS011;56530;42.640;23.372;2023-12-04T11:10:31;5.93;;;5.33;;
69369;SDS011;56530;42.640;23.372;2023-12-04T11:13:02;5.63;;;4.83;;
69369;SDS011;56530;42.640;23.372;2023-12-04T11:15:40;6.47;;;4.77;;
69369;SDS011;56530;42.640;23.372;2023-12-04T11:18:06;8.23;;;5.67;;
69369;SDS011;56530;42.640;23.372;2023-12-04T11:20:35;7.37;;;5.70;;
69369;SDS011;56530;42.640;23.372;2023-12-04T11:23:03;7.23;;;6.07;;
69369;SDS011;56530;42.640;23.372;2023-12-04T11:25:32;5.77;;;5.27;;
69369;SDS011;56530;42.640;23.372;2023-12-04T11:28:00;9.23;;;7.13;;
69369;SDS011;56530;42.640;23.372;2023-12-04T11:30:25;9.83;;;6.33;;
69369;SDS011;56530;42.640;23.372;2023-12-04T11:32:51;8.33;;;6.10;;
69369;SDS011;56530;42.640;23.372;2023-12-04T11:35:21;6.30;;;5.70;;
69369;SDS011;56530;42.640;23.372;2023-12-04T11:37:47;6.63;;;5.97;;
69369;SDS011;56530;42.640;23.372;2023-12-04T11:40:14;7.10;;;6.40;;
69369;SDS011;56530;42.640;23.372;2023-12-04T11:42:40;7.27;;;6.37;;
69369;SDS011;56530;42.640;23.372;2023-12-04T11:45:06;8.63;;;6.57;;
69369;SDS011;56530;42.640;23.372;2023-12-04T11:50:20;7.13;;;5.90;;
69369;SDS011;56530;42.640;23.372;2023-12-04T11:52:46;7.07;;;5.20;;
69369;SDS011;56530;42.640;23.372;2023-12-04T11:55:12;6.53;;;5.63;;
69369;SDS011;56530;42.640;23.372;2023-12-04T11:57:38;6.40;;;5.80;;
69369;SDS011;56530;42.640;23.372;2023-12-04T12:00:15;7.60;;;6.80;;
69369;SDS011;56530;42.640;23.372;2023-12-04T12:05:22;7.17;;;6.47;;
69369;SDS011;56530;42.640;23.372;2023-12-04T12:07:48;7.23;;;6.53;;
69369;SDS011;56530;42.640;23.372;2023-12-04T12:10:14;7.53;;;6.67;;
69369;SDS011;56530;42.640;23.372;2023-12-04T12:12:40;7.27;;;5.60;;
69369;SDS011;56530;42.640;23.372;2023-12-04T12:15:09;7.00;;;6.40;;
69369;SDS011;56530;42.640;23.372;2023-12-04T12:17:38;7.33;;;6.63;;
69369;SDS011;56530;42.640;23.372;2023-12-04T12:20:08;6.90;;;5.87;;
69369;SDS011;56530;42.640;23.372;2023-12-04T12:22:35;8.37;;;6.60;;
69369;SDS011;56530;42.640;23.372;2023-12-04T12:25:04;7.13;;;6.53;;
69369;SDS011;56530;42.640;23.372;2023-12-04T12:27:31;7.50;;;6.80;;
69369;SDS011;56530;42.640;23.372;2023-12-04T12:29:58;7.40;;;6.53;;
69369;SDS011;56530;42.640;23.372;2023-12-04T12:32:23;9.17;;;7.73;;
69369;SDS011;56530;42.640;23.372;2023-12-04T12:34:51;9.07;;;6.33;;
69369;SDS011;56530;42.640;23.372;2023-12-04T12:37:16;7.57;;;6.63;;
69369;SDS011;56530;42.640;23.372;2023-12-04T12:39:42;9.13;;;8.07;;
69369;SDS011;56530;42.640;23.372;2023-12-04T12:42:07;7.67;;;6.93;;
69369;SDS011;56530;42.640;23.372;2023-12-04T12:44:36;6.93;;;6.33;;
69369;SDS011;56530;42.640;23.372;2023-12-04T12:47:05;7.60;;;6.83;;
69369;SDS011;56530;42.640;23.372;2023-12-04T12:49:32;7.97;;;6.30;;
69369;SDS011;56530;42.640;23.372;2023-12-04T12:51:59;10.43;;;7.20;;
69369;SDS011;56530;42.640;23.372;2023-12-04T12:54:25;15.27;;;8.40;;
69369;SDS011;56530;42.640;23.372;2023-12-04T12:56:50;8.80;;;8.00;;
69369;SDS011;56530;42.640;23.372;2023-12-04T12:59:15;10.63;;;8.37;;
69369;SDS011;56530;42.640;23.372;2023-12-04T13:01:42;12.00;;;8.67;;
69369;SDS011;56530;42.640;23.372;2023-12-04T13:04:08;11.63;;;8.77;;
69369;SDS011;56530;42.640;23.372;2023-12-04T13:06:35;16.33;;;9.73;;
69369;SDS011;56530;42.640;23.372;2023-12-04T13:09:00;11.17;;;9.70;;
69369;SDS011;56530;42.640;23.372;2023-12-04T13:11:26;10.37;;;9.27;;
69369;SDS011;56530;42.640;23.372;2023-12-04T13:13:52;10.90;;;9.50;;
69369;SDS011;56530;42.640;23.372;2023-12-04T13:16:17;12.80;;;9.43;;
69369;SDS011;56530;42.640;23.372;2023-12-04T13:18:43;13.37;;;9.70;;
69369;SDS011;56530;42.640;23.372;2023-12-04T13:21:09;12.80;;;10.47;;
69369;SDS011;56530;42.640;23.372;2023-12-04T13:23:35;13.33;;;10.57;;
69369;SDS011;56530;42.640;23.372;2023-12-04T13:26:02;19.20;;;11.07;;
69369;SDS011;56530;42.640;23.372;2023-12-04T13:28:28;15.47;;;12.00;;
69369;SDS011;56530;42.640;23.372;2023-12-04T13:30:53;15.63;;;11.70;;
69369;SDS011;56530;42.640;23.372;2023-12-04T13:33:20;14.17;;;11.33;;
69369;SDS011;56530;42.640;23.372;2023-12-04T13:35:46;13.67;;;11.20;;
69369;SDS011;56530;42.640;23.372;2023-12-04T13:38:11;16.07;;;12.40;;
69369;SDS011;56530;42.640;23.372;2023-12-04T13:40:41;15.47;;;13.23;;
69369;SDS011;56530;42.640;23.372;2023-12-04T13:43:14;15.67;;;13.27;;
69369;SDS011;56530;42.640;23.372;2023-12-04T13:45:58;15.57;;;13.83;;
69369;SDS011;56530;42.640;23.372;2023-12-04T13:48:24;19.53;;;13.80;;
69369;SDS011;56530;42.640;23.372;2023-12-04T13:50:49;16.77;;;12.37;;
69369;SDS011;56530;42.640;23.372;2023-12-04T13:53:15;16.35;;;12.07;;
69369;SDS011;56530;42.640;23.372;2023-12-04T13:55:41;18.13;;;12.30;;
69369;SDS011;56530;42.640;23.372;2023-12-04T13:58:34;18.83;;;12.27;;
69369;SDS011;56530;42.640;23.372;2023-12-04T14:00:59;22.00;;;14.23;;
69369;SDS011;56530;42.640;23.372;2023-12-04T14:03:28;13.47;;;11.27;;
69369;SDS011;56530;42.640;23.372;2023-12-04T14:05:53;19.40;;;12.77;;
69369;SDS011;56530;42.640;23.372;2023-12-04T14:08:19;16.27;;;12.83;;
69369;SDS011;56530;42.640;23.372;2023-12-04T14:10:45;15.97;;;12.17;;
69369;SDS011;56530;42.640;23.372;2023-12-04T14:13:10;13.47;;;11.67;;
69369;SDS011;56530;42.640;23.372;2023-12-04T14:15:35;12.60;;;11.37;;
69369;SDS011;56530;42.640;23.372;2023-12-04T14:18:01;15.17;;;12.07;;
69369;SDS011;56530;42.640;23.372;2023-12-04T14:20:27;13.77;;;11.53;;
69369;SDS011;56530;42.640;23.372;2023-12-04T14:22:52;16.40;;;11.53;;
69369;SDS011;56530;42.640;23.372;2023-12-04T14:25:17;15.67;;;11.00;;
69369;SDS011;56530;42.640;23.372;2023-12-04T14:27:43;13.50;;;11.40;;
69369;SDS011;56530;42.640;23.372;2023-12-04T14:30:10;14.33;;;11.63;;
69369;SDS011;56530;42.640;23.372;2023-12-04T14:32:36;13.30;;;11.17;;
69369;SDS011;56530;42.640;23.372;2023-12-04T14:35:02;15.00;;;11.00;;